»·PEaware :: SWA6837 KLAS-KTUS

SWA6837 :: KLAS-KTUS

FLIGHT INFORMATION

Flight Status: Arrived
Operator:
Southwest Airlines
More flights by this operator :: More flights under this callsign
Pilot: Tristan Z. (4790)
Aircraft: BOEING 737-700
(B737)
More flights by this aircraft type
Origin: KLAS McCarran Intl
United States
Destination: KTUS Tucson Intl
United States
More flights between these airports :: More routes between these airports
Route: +PRFUM4 DRK J11 PXR DINGO5
File this flight plan on PilotEdge
Remarks:
Altitude:
(Current/Filed)
39,000ft
Speed:
(Current/Filed)
457kts
Departed: 13-Nov-20 12:23 PM
Arrived: 13-Nov-20 01:26 PM
Distance/Time
Traveled:
317nm/1:03
Distance/Time
To Go:
Arrived

Flight Plot

Page will automatically refresh every two minutes.

Flight plan parsing failed; only flown route is shown


Map Options




Map Legend


Flown Route
Filed Route
Departure Airport
Arrival Airport
Navaid (VOR, NDB)
Fix

Horizontal Profiles

Position Reports

Time Latitude Longitude Heading Altitude Ground
Speed
13-Nov-20 12:06 36.082313 -115.150730 350 2189ft 0kts
13-Nov-20 12:07 36.082313 -115.150730 350 2189ft 0kts
13-Nov-20 12:08 36.082313 -115.150730 350 2189ft 0kts
13-Nov-20 12:09 36.082313 -115.150730 350 2189ft 0kts
13-Nov-20 12:10 36.082313 -115.150730 350 2189ft 0kts
13-Nov-20 12:11 36.082313 -115.150730 350 2189ft 0kts
13-Nov-20 12:12 36.082313 -115.150730 350 2189ft 0kts
13-Nov-20 12:13 36.082113 -115.150686 349 2189ft 2kts
13-Nov-20 12:14 36.081652 -115.150482 291 2189ft 1kts
13-Nov-20 12:14 36.081631 -115.150403 291 2189ft 0kts
13-Nov-20 12:16 36.080174 -115.151158 175 2189ft 14kts
13-Nov-20 12:16 36.078062 -115.152680 269 2189ft 11kts
13-Nov-20 12:18 36.078044 -115.159024 268 2189ft 20kts
13-Nov-20 12:18 36.079530 -115.162225 25 2189ft 19kts
13-Nov-20 12:19 36.085538 -115.158790 24 2189ft 25kts
13-Nov-20 12:20 36.091690 -115.155305 25 2189ft 23kts
13-Nov-20 12:21 36.097244 -115.152120 24 2189ft 17kts
13-Nov-20 12:22 36.095225 -115.155441 203 2189ft 89kts
13-Nov-20 12:23 36.054548 -115.179160 204 4349ft 186kts
13-Nov-20 12:24 36.006799 -115.225226 237 6500ft 250kts
13-Nov-20 12:25 35.956910 -115.286542 196 9521ft 281kts
13-Nov-20 12:26 35.878997 -115.253841 140 12712ft 339kts
13-Nov-20 12:27 35.837724 -115.143127 108 15949ft 379kts
13-Nov-20 12:28 35.826056 -115.010414 85 18938ft 408kts
13-Nov-20 12:29 35.836893 -114.868088 82 21795ft 427kts
13-Nov-20 12:30 35.847885 -114.720057 81 24449ft 443kts
13-Nov-20 12:31 35.831010 -114.567568 109 26807ft 466kts
13-Nov-20 12:32 35.765479 -114.426680 121 28972ft 483kts
13-Nov-20 12:33 35.691013 -114.286941 120 31056ft 492kts
13-Nov-20 12:34 35.616222 -114.146738 119 33458ft 487kts
13-Nov-20 12:35 35.542643 -114.009478 117 35633ft 482kts
13-Nov-20 12:36 35.469352 -113.873589 118 37538ft 477kts
13-Nov-20 12:37 35.396123 -113.738048 118 39004ft 476kts
13-Nov-20 12:38 35.321646 -113.600765 118 39167ft 489kts
13-Nov-20 12:39 35.246410 -113.462430 118 39165ft 490kts
13-Nov-20 12:40 35.170684 -113.323883 119 39173ft 488kts
13-Nov-20 12:41 35.095031 -113.185890 119 39178ft 490kts
13-Nov-20 12:42 35.019285 -113.048396 119 39188ft 486kts
13-Nov-20 12:43 34.942469 -112.909500 126 39189ft 506kts
13-Nov-20 12:44 34.864976 -112.769542 136 39181ft 472kts
13-Nov-20 12:45 34.790896 -112.637046 135 39193ft 485kts
13-Nov-20 12:46 34.706607 -112.514968 151 39200ft 459kts
13-Nov-20 12:47 34.601830 -112.439961 171 39195ft 420kts
13-Nov-20 12:48 34.491470 -112.394317 173 39197ft 417kts
13-Nov-20 12:49 34.381829 -112.349845 174 39196ft 419kts
13-Nov-20 12:50 34.271700 -112.305429 173 39172ft 416kts
13-Nov-20 12:51 34.162474 -112.261267 174 39150ft 415kts
13-Nov-20 12:52 34.052973 -112.217128 174 39116ft 414kts
13-Nov-20 12:53 33.944314 -112.173657 173 39115ft 416kts
13-Nov-20 12:54 33.834516 -112.129675 173 39132ft 419kts
13-Nov-20 12:55 33.724279 -112.085792 173 39132ft 419kts
13-Nov-20 12:56 33.614646 -112.042027 173 39135ft 414kts
13-Nov-20 12:57 33.505383 -111.998697 173 39125ft 418kts
13-Nov-20 12:58 33.399952 -111.966240 185 39131ft 401kts
13-Nov-20 12:59 33.290213 -111.954188 185 39064ft 395kts
13-Nov-20 13:00 33.183260 -111.942171 186 36777ft 381kts
13-Nov-20 13:01 33.074822 -111.930088 185 34863ft 398kts
13-Nov-20 13:02 32.968345 -111.917960 186 32905ft 381kts
13-Nov-20 13:03 32.857516 -111.883952 162 28905ft 469kts
13-Nov-20 13:04 32.751803 -111.797713 153 24292ft 453kts
13-Nov-20 13:05 32.651613 -111.714960 150 20040ft 425kts
13-Nov-20 13:06 32.558979 -111.636065 139 15913ft 401kts
13-Nov-20 13:07 32.491519 -111.538111 126 12111ft 364kts
13-Nov-20 13:08 32.438267 -111.453564 126 11964ft 303kts
13-Nov-20 13:09 32.388864 -111.374094 115 11952ft 284kts
13-Nov-20 13:10 32.350902 -111.300566 124 11965ft 257kts
13-Nov-20 13:11 32.305210 -111.232925 139 11907ft 283kts
13-Nov-20 13:12 32.244264 -111.171678 140 11833ft 293kts
13-Nov-20 13:13 32.180576 -111.107832 140 11058ft 300kts
13-Nov-20 13:14 32.117266 -111.044144 140 10055ft 298kts
13-Nov-20 13:15 32.054610 -110.981100 140 9051ft 294kts
13-Nov-20 13:16 31.993215 -110.919001 140 8064ft 288kts
13-Nov-20 13:17 31.932833 -110.857491 140 7999ft 288kts
13-Nov-20 13:18 31.880842 -110.796230 100 8015ft 242kts
13-Nov-20 13:19 31.914638 -110.732372 20 7998ft 237kts
13-Nov-20 13:20 31.966571 -110.768391 305 7411ft 234kts
13-Nov-20 13:21 32.014398 -110.825005 316 5869ft 254kts
13-Nov-20 13:22 32.063547 -110.876333 331 4453ft 194kts
13-Nov-20 13:23 32.096154 -110.916029 316 2832ft 140kts
13-Nov-20 13:24 32.113501 -110.936262 316 2651ft 45kts
13-Nov-20 13:25 32.118638 -110.938242 313 2651ft 8kts
13-Nov-20 13:26 32.119275 -110.937807 84 2651ft 0kts
13-Nov-20 13:27 32.119275 -110.937807 84 2651ft 0kts

Navigation Log

Ident Type
Flight plan parsing failed, navigation log unavailable